createdAt,value
2018-05-07T00:00:07.212Z,990.70
2018-05-07T00:01:06.260Z,990.66
2018-05-07T00:02:59.703Z,990.67
2018-05-07T00:03:59.114Z,990.67
2018-05-07T00:05:53.167Z,990.67
2018-05-07T00:06:52.119Z,990.69
2018-05-07T00:08:47.641Z,990.67
2018-05-07T00:09:47.489Z,990.65
2018-05-07T00:11:40.066Z,990.64
2018-05-07T00:12:39.613Z,990.63
2018-05-07T00:14:33.060Z,990.63
2018-05-07T00:15:32.515Z,990.65
2018-05-07T00:17:26.496Z,990.65
2018-05-07T00:18:26.379Z,990.65
2018-05-07T00:20:18.977Z,990.68
2018-05-07T00:21:19.335Z,990.69
2018-05-07T00:23:11.918Z,990.72
2018-05-07T00:24:11.367Z,990.68
2018-05-07T00:26:06.409Z,990.69
2018-05-07T00:27:06.287Z,990.65
2018-05-07T00:28:59.806Z,990.64
2018-05-07T00:29:59.279Z,990.67
2018-05-07T00:31:52.314Z,990.64
2018-05-07T00:32:52.712Z,990.57
2018-05-07T00:34:45.707Z,990.61
2018-05-07T00:35:44.756Z,990.58
2018-05-07T00:37:39.253Z,990.58
2018-05-07T00:38:38.143Z,990.54
2018-05-07T00:40:43.810Z,990.50
2018-05-07T00:41:42.839Z,990.53
2018-05-07T00:43:36.329Z,990.50
2018-05-07T00:44:36.153Z,990.51
2018-05-07T00:46:41.859Z,990.54
2018-05-07T00:47:41.286Z,990.48
2018-05-07T00:49:34.858Z,990.50
2018-05-07T00:50:34.425Z,990.50
2018-05-07T00:52:27.812Z,990.46
2018-05-07T00:53:26.852Z,990.47
2018-05-07T00:55:21.833Z,990.41
2018-05-07T00:56:21.395Z,990.43
2018-05-07T00:58:15.247Z,990.48
2018-05-07T00:59:14.787Z,990.47
2018-05-07T01:01:09.260Z,990.45
2018-05-07T01:02:08.641Z,990.43
2018-05-07T01:04:02.187Z,990.43
2018-05-07T01:05:01.265Z,990.46
2018-05-07T01:06:54.676Z,990.43
2018-05-07T01:07:54.189Z,990.49
2018-05-07T01:09:49.645Z,990.48
2018-05-07T01:10:48.663Z,990.50
2018-05-07T01:12:44.198Z,990.46
2018-05-07T01:13:43.179Z,990.49
2018-05-07T01:15:36.607Z,990.46
2018-05-07T01:16:36.093Z,990.47
2018-05-07T01:18:29.535Z,990.45
2018-05-07T01:19:29.048Z,990.45
2018-05-07T01:21:22.506Z,990.44
2018-05-07T01:22:21.991Z,990.45
2018-05-07T01:24:15.950Z,990.42
2018-05-07T01:25:14.984Z,990.44
2018-05-07T01:27:08.433Z,990.41
2018-05-07T01:28:07.909Z,990.40
2018-05-07T01:30:01.351Z,990.41
2018-05-07T01:31:01.331Z,990.40
2018-05-07T01:32:54.711Z,990.43
2018-05-07T01:33:53.931Z,990.42
2018-05-07T01:35:47.355Z,990.45
2018-05-07T01:36:46.794Z,990.48
2018-05-07T01:38:40.745Z,990.47
2018-05-07T01:39:39.765Z,990.46
2018-05-07T01:41:33.246Z,990.47
2018-05-07T01:42:32.747Z,990.48
2018-05-07T01:44:27.677Z,990.48
2018-05-07T01:45:27.322Z,990.48
2018-05-07T01:47:20.634Z,990.50
2018-05-07T01:48:20.151Z,990.49
2018-05-07T01:50:13.590Z,990.51
2018-05-07T01:51:13.099Z,990.52
2018-05-07T01:53:07.053Z,990.57
2018-05-07T01:54:06.083Z,990.56
2018-05-07T01:55:59.956Z,990.56
2018-05-07T01:56:59.054Z,990.56
2018-05-07T01:58:52.464Z,990.55
2018-05-07T01:59:51.973Z,990.58
2018-05-07T02:01:46.978Z,990.55
2018-05-07T02:02:46.402Z,990.56
2018-05-07T02:04:39.895Z,990.56
2018-05-07T02:05:40.266Z,990.56
2018-05-07T02:07:32.819Z,990.58
2018-05-07T02:08:32.339Z,990.54
2018-05-07T02:10:25.781Z,990.53
2018-05-07T02:11:25.328Z,990.55
2018-05-07T02:13:18.800Z,990.55
2018-05-07T02:14:18.663Z,990.53
2018-05-07T02:16:12.262Z,990.55
2018-05-07T02:17:11.599Z,990.58
2018-05-07T02:19:06.220Z,990.60
2018-05-07T02:20:06.205Z,990.57
2018-05-07T02:21:59.204Z,990.54
2018-05-07T02:22:59.582Z,990.56
2018-05-07T02:24:52.069Z,990.54
2018-05-07T02:25:51.614Z,990.53
2018-05-07T02:27:45.637Z,990.55
2018-05-07T02:28:44.543Z,990.55
2018-05-07T02:30:38.021Z,990.57
2018-05-07T02:31:37.578Z,990.55
2018-05-07T02:33:30.992Z,990.52
2018-05-07T02:34:30.483Z,990.52
2018-05-07T02:36:25.457Z,990.50
2018-05-07T02:37:24.991Z,990.50
2018-05-07T02:39:18.416Z,990.53
2018-05-07T02:40:17.937Z,990.53
2018-05-07T02:42:11.318Z,990.46
2018-05-07T02:43:10.923Z,990.49
2018-05-07T02:45:04.341Z,990.46
2018-05-07T02:46:03.880Z,990.50
2018-05-07T02:47:57.315Z,990.46
2018-05-07T02:48:57.207Z,990.45
2018-05-07T02:50:50.741Z,990.43
2018-05-07T02:51:49.740Z,990.41
2018-05-07T02:53:44.746Z,990.41
2018-05-07T02:54:44.252Z,990.39
2018-05-07T02:56:37.724Z,990.38
2018-05-07T02:57:37.191Z,990.40
2018-05-07T02:59:31.125Z,990.36
2018-05-07T03:00:30.155Z,990.37
2018-05-07T03:01:30.504Z,990.35
2018-05-07T03:02:30.427Z,990.35
2018-05-07T03:03:30.490Z,990.34
2018-05-07T03:04:30.410Z,990.36
2018-05-07T03:05:30.390Z,990.34
2018-05-07T03:06:30.346Z,990.36
2018-05-07T03:07:30.230Z,990.34
2018-05-07T03:08:30.278Z,990.35
2018-05-07T03:09:30.207Z,990.34
2018-05-07T03:10:29.797Z,990.37
2018-05-07T03:11:30.573Z,990.31
2018-05-07T03:12:30.540Z,990.32
2018-05-07T03:13:30.046Z,990.33
2018-05-07T03:14:29.978Z,990.28
2018-05-07T03:15:29.933Z,990.26
2018-05-07T03:16:29.902Z,990.27
2018-05-07T03:17:29.952Z,990.25
2018-05-07T03:18:29.796Z,990.25
2018-05-07T03:19:29.747Z,990.28
2018-05-07T03:20:30.236Z,990.22
2018-05-07T03:21:29.291Z,990.13
2018-05-07T03:22:29.667Z,990.16
2018-05-07T03:23:29.578Z,990.14
2018-05-07T03:24:30.054Z,990.15
2018-05-07T03:25:30.025Z,990.15
2018-05-07T03:26:29.459Z,990.14
2018-05-07T03:27:29.473Z,990.12
2018-05-07T03:28:29.322Z,990.09
2018-05-07T03:29:29.839Z,990.10
2018-05-07T03:30:28.953Z,990.07
2018-05-07T03:31:28.891Z,990.11
2018-05-07T03:32:28.804Z,990.11
2018-05-07T03:33:28.759Z,990.09
2018-05-07T03:34:29.180Z,990.06
2018-05-07T03:35:29.641Z,990.00
2018-05-07T03:36:29.444Z,990.01
2018-05-07T03:37:29.537Z,990.06
2018-05-07T03:38:29.509Z,990.07
2018-05-07T03:39:28.955Z,990.05
2018-05-07T03:40:29.422Z,990.06
2018-05-07T03:41:30.425Z,990.05
2018-05-07T03:42:29.360Z,990.03
2018-05-07T03:43:28.763Z,990.07
2018-05-07T03:44:28.731Z,990.09
2018-05-07T03:45:28.357Z,990.08
2018-05-07T03:46:28.653Z,990.10
2018-05-07T03:47:28.630Z,990.10
2018-05-07T03:48:28.583Z,990.09
2018-05-07T03:49:28.534Z,990.13
2018-05-07T03:50:28.670Z,990.12
2018-05-07T03:51:28.398Z,990.12
2018-05-07T03:52:28.380Z,990.14
2018-05-07T03:53:28.265Z,990.13
2018-05-07T03:54:27.898Z,990.11
2018-05-07T03:55:28.776Z,990.12
2018-05-07T03:56:28.751Z,990.12
2018-05-07T03:57:28.679Z,990.13
2018-05-07T03:58:28.638Z,990.15
2018-05-07T03:59:28.060Z,990.11
2018-05-07T04:00:28.064Z,990.12
2018-05-07T04:01:28.009Z,990.11
2018-05-07T04:02:27.931Z,990.12
2018-05-07T04:03:27.903Z,990.06
2018-05-07T04:04:27.930Z,990.08
2018-05-07T04:05:27.488Z,990.09
2018-05-07T04:06:27.844Z,990.08
2018-05-07T04:07:27.730Z,990.10
2018-05-07T04:08:28.402Z,990.08
2018-05-07T04:09:28.759Z,990.10
2018-05-07T04:10:28.720Z,990.10
2018-05-07T04:11:28.140Z,990.11
2018-05-07T04:12:27.196Z,990.11
2018-05-07T04:13:27.096Z,990.13
2018-05-07T04:14:27.068Z,990.09
2018-05-07T04:15:27.035Z,990.11
2018-05-07T04:16:26.915Z,990.11
2018-05-07T04:17:26.858Z,990.05
2018-05-07T04:18:26.837Z,990.06
2018-05-07T04:19:26.790Z,990.04
2018-05-07T04:20:26.746Z,990.03
2018-05-07T04:21:26.709Z,990.06
2018-05-07T04:22:26.679Z,990.00
2018-05-07T04:23:26.765Z,990.04
2018-05-07T04:24:26.591Z,990.07
2018-05-07T04:25:26.562Z,990.06
2018-05-07T04:26:26.538Z,990.05
2018-05-07T04:27:26.520Z,990.00
2018-05-07T04:28:26.475Z,990.03
2018-05-07T04:29:26.377Z,990.07
2018-05-07T04:30:26.344Z,990.05
2018-05-07T04:31:26.307Z,990.08
2018-05-07T04:32:26.277Z,990.11
2018-05-07T04:33:26.205Z,990.09
2018-05-07T04:34:26.175Z,990.14
2018-05-07T04:35:26.140Z,990.16
2018-05-07T04:36:26.117Z,990.21
2018-05-07T04:37:26.131Z,990.23
2018-05-07T04:38:26.001Z,990.22
2018-05-07T04:39:25.983Z,990.23
2018-05-07T04:40:25.978Z,990.24
2018-05-07T04:41:25.880Z,990.21
2018-05-07T04:42:25.874Z,990.22
2018-05-07T04:43:25.811Z,990.20
2018-05-07T04:44:25.744Z,990.19
2018-05-07T04:45:25.721Z,990.23
2018-05-07T04:46:25.668Z,990.26
2018-05-07T04:47:25.631Z,990.27
2018-05-07T04:48:25.618Z,990.26
2018-05-07T04:49:25.553Z,990.25
2018-05-07T04:50:25.509Z,990.26
2018-05-07T04:51:25.469Z,990.26
2018-05-07T04:52:25.423Z,990.24
2018-05-07T04:53:25.389Z,990.29
2018-05-07T04:54:25.334Z,990.25
2018-05-07T04:55:25.308Z,990.27
2018-05-07T04:56:25.392Z,990.28
2018-05-07T04:57:25.228Z,990.31
2018-05-07T04:58:25.195Z,990.28
2018-05-07T04:59:25.149Z,990.31
2018-05-07T05:00:25.990Z,990.27
2018-05-07T05:01:25.080Z,990.32
2018-05-07T05:02:25.022Z,990.28
2018-05-07T05:03:24.982Z,990.27
2018-05-07T05:04:24.956Z,990.32
2018-05-07T05:05:24.888Z,990.32
2018-05-07T05:06:24.866Z,990.27
2018-05-07T05:07:24.814Z,990.30
2018-05-07T05:08:24.779Z,990.29
2018-05-07T05:09:24.809Z,990.30
2018-05-07T05:10:24.730Z,990.30
2018-05-07T05:11:24.652Z,990.29
2018-05-07T05:12:24.632Z,990.27
2018-05-07T05:13:24.628Z,990.26
2018-05-07T05:14:24.569Z,990.28
2018-05-07T05:15:24.513Z,990.27
2018-05-07T05:16:24.527Z,990.24
2018-05-07T05:17:24.417Z,990.25
2018-05-07T05:18:24.388Z,990.27
2018-05-07T05:19:24.405Z,990.27
2018-05-07T05:20:24.312Z,990.29
2018-05-07T05:21:24.324Z,990.29
2018-05-07T05:22:24.225Z,990.27
2018-05-07T05:23:24.186Z,990.29
2018-05-07T05:24:24.176Z,990.26
2018-05-07T05:25:24.124Z,990.28
2018-05-07T05:26:24.097Z,990.27
2018-05-07T05:27:24.078Z,990.27
2018-05-07T05:28:24.031Z,990.27
2018-05-07T05:29:23.973Z,990.30
2018-05-07T05:30:23.935Z,990.29
2018-05-07T05:31:23.898Z,990.25
2018-05-07T05:32:23.883Z,990.26
2018-05-07T05:33:23.846Z,990.26
2018-05-07T05:34:23.781Z,990.26
2018-05-07T05:35:23.747Z,990.25
2018-05-07T05:36:23.717Z,990.23
2018-05-07T05:37:23.791Z,990.22
2018-05-07T05:38:23.636Z,990.21
2018-05-07T05:39:23.589Z,990.21
2018-05-07T05:40:23.571Z,990.16
2018-05-07T05:41:23.526Z,990.16
2018-05-07T05:42:23.491Z,990.16
2018-05-07T05:43:23.458Z,990.15
2018-05-07T05:44:23.402Z,990.16
2018-05-07T05:45:23.384Z,990.18
2018-05-07T05:46:23.406Z,990.16
2018-05-07T05:47:23.319Z,990.18
2018-05-07T05:48:23.253Z,990.16
2018-05-07T05:49:23.222Z,990.16
2018-05-07T05:50:23.199Z,990.17
2018-05-07T05:51:23.134Z,990.18
2018-05-07T05:52:23.132Z,990.20
2018-05-07T05:53:23.171Z,990.21
2018-05-07T05:54:23.022Z,990.19
2018-05-07T05:55:22.977Z,990.20
2018-05-07T05:56:22.976Z,990.22
2018-05-07T05:57:22.930Z,990.19
2018-05-07T05:58:22.880Z,990.17
2018-05-07T05:59:22.846Z,990.20
2018-05-07T06:00:22.789Z,990.15
2018-05-07T06:01:22.767Z,990.16
2018-05-07T06:02:23.483Z,990.17
2018-05-07T06:03:22.701Z,990.14
2018-05-07T06:04:22.644Z,990.16
2018-05-07T06:05:22.609Z,990.17
2018-05-07T06:06:22.563Z,990.15
2018-05-07T06:07:22.545Z,990.16
2018-05-07T06:08:22.530Z,990.12
2018-05-07T06:09:22.456Z,990.10
2018-05-07T06:10:22.415Z,990.12
2018-05-07T06:11:22.459Z,990.10
2018-05-07T06:12:22.346Z,990.10
2018-05-07T06:13:22.348Z,990.09
2018-05-07T06:14:22.291Z,990.04
2018-05-07T06:15:22.311Z,990.04
2018-05-07T06:16:22.195Z,990.02
2018-05-07T06:17:22.145Z,990.02
2018-05-07T06:18:22.123Z,990.00
2018-05-07T06:19:22.116Z,989.99
2018-05-07T06:20:22.073Z,989.97
2018-05-07T06:21:22.021Z,989.96
2018-05-07T06:22:22.024Z,989.97
2018-05-07T06:23:21.933Z,989.95
2018-05-07T06:24:21.910Z,989.97
2018-05-07T06:25:21.849Z,989.97
2018-05-07T06:26:21.864Z,989.97
2018-05-07T06:27:21.817Z,989.98
2018-05-07T06:28:21.745Z,990.01
2018-05-07T06:29:21.705Z,990.01
2018-05-07T06:30:21.689Z,990.00
2018-05-07T06:31:21.678Z,990.02
2018-05-07T06:32:21.584Z,989.99
2018-05-07T06:33:21.557Z,990.04
2018-05-07T06:34:21.595Z,990.04
2018-05-07T06:35:21.984Z,990.01
2018-05-07T06:36:21.467Z,989.99
2018-05-07T06:37:21.476Z,990.00
2018-05-07T06:38:21.385Z,989.99
2018-05-07T06:39:21.359Z,989.95
2018-05-07T06:40:21.322Z,989.98
2018-05-07T06:41:21.295Z,989.93
2018-05-07T06:42:21.258Z,989.93
2018-05-07T06:43:21.245Z,989.94
2018-05-07T06:44:21.203Z,989.92
2018-05-07T06:45:21.120Z,989.91
2018-05-07T06:46:21.099Z,989.87
2018-05-07T06:47:21.038Z,989.90
2018-05-07T06:48:21.027Z,989.93
2018-05-07T06:49:21.043Z,989.89
2018-05-07T06:50:20.951Z,989.93
2018-05-07T06:51:20.921Z,989.97
2018-05-07T06:52:20.936Z,990.01
2018-05-07T06:53:20.902Z,989.93
2018-05-07T06:54:20.812Z,989.95
2018-05-07T06:55:20.822Z,989.96
2018-05-07T06:56:20.759Z,989.99
2018-05-07T06:57:20.716Z,989.98
2018-05-07T06:58:20.696Z,990.02
2018-05-07T06:59:20.683Z,989.98
2018-05-07T07:00:20.615Z,989.95
2018-05-07T07:01:20.589Z,989.98
2018-05-07T07:02:20.652Z,989.98
2018-05-07T07:03:20.559Z,990.01
2018-05-07T07:04:20.496Z,990.04
2018-05-07T07:05:20.542Z,990.03
2018-05-07T07:06:20.437Z,990.01
2018-05-07T07:07:20.443Z,990.02
2018-05-07T07:08:20.493Z,989.97
2018-05-07T07:09:20.354Z,989.99
2018-05-07T07:10:20.336Z,989.98
2018-05-07T07:11:20.321Z,989.97
2018-05-07T07:12:20.283Z,990.01
2018-05-07T07:13:20.253Z,990.04
2018-05-07T07:14:20.240Z,989.99
2018-05-07T07:15:20.226Z,990.03
2018-05-07T07:16:20.280Z,990.02
2018-05-07T07:17:20.173Z,990.03
2018-05-07T07:18:20.130Z,990.02
2018-05-07T07:19:20.127Z,990.00
2018-05-07T07:20:20.110Z,990.00
2018-05-07T07:21:20.077Z,989.97
2018-05-07T07:22:20.050Z,989.95
2018-05-07T07:23:20.071Z,989.94
2018-05-07T07:24:20.034Z,989.96
2018-05-07T07:25:20.024Z,990.00
2018-05-07T07:26:19.976Z,989.95
2018-05-07T07:27:19.983Z,989.92
2018-05-07T07:28:19.927Z,989.95
2018-05-07T07:29:19.917Z,989.96
2018-05-07T07:30:19.900Z,989.97
2018-05-07T07:31:19.869Z,989.89
2018-05-07T07:32:19.880Z,989.91
2018-05-07T07:33:19.807Z,989.90
2018-05-07T07:34:19.803Z,989.93
2018-05-07T07:35:19.780Z,989.93
2018-05-07T07:36:19.756Z,989.93
2018-05-07T07:37:19.733Z,989.91
2018-05-07T07:38:19.702Z,989.91
2018-05-07T07:39:19.698Z,989.91
2018-05-07T07:40:19.655Z,989.92
2018-05-07T07:41:19.674Z,989.92
2018-05-07T07:42:19.641Z,989.93
2018-05-07T07:43:19.597Z,989.89
2018-05-07T07:44:19.627Z,989.93
2018-05-07T07:45:19.567Z,989.88
2018-05-07T07:46:19.599Z,989.92
2018-05-07T07:47:19.646Z,989.92
2018-05-07T07:48:19.507Z,989.94
2018-05-07T07:49:19.483Z,989.97
2018-05-07T07:50:19.475Z,989.95
2018-05-07T07:51:19.434Z,989.94
2018-05-07T07:52:19.602Z,989.96
2018-05-07T07:53:19.486Z,989.92
2018-05-07T07:54:19.388Z,989.89
2018-05-07T07:55:19.358Z,989.90
2018-05-07T07:56:19.338Z,989.93
2018-05-07T07:57:19.325Z,989.90
2018-05-07T07:58:19.302Z,989.91
2018-05-07T07:59:19.319Z,989.87
2018-05-07T08:00:19.254Z,989.84
2018-05-07T08:01:19.263Z,989.89
2018-05-07T08:02:19.224Z,989.89
2018-05-07T08:03:19.224Z,989.83
2018-05-07T08:04:19.293Z,989.83
2018-05-07T08:05:19.230Z,989.80
2018-05-07T08:06:19.200Z,989.80
2018-05-07T08:07:19.136Z,989.81
2018-05-07T08:08:19.135Z,989.81
2018-05-07T08:09:19.122Z,989.80
2018-05-07T08:10:19.069Z,989.81
2018-05-07T08:11:19.079Z,989.77
2018-05-07T08:12:19.132Z,989.78
2018-05-07T08:13:19.039Z,989.77
2018-05-07T08:14:19.097Z,989.79
2018-05-07T08:15:19.050Z,989.83
2018-05-07T08:16:19.001Z,989.78
2018-05-07T08:17:18.992Z,989.79
2018-05-07T08:18:18.941Z,989.78
2018-05-07T08:19:18.929Z,989.80
2018-05-07T08:20:18.912Z,989.77
2018-05-07T08:21:18.935Z,989.76
2018-05-07T08:22:18.865Z,989.75
2018-05-07T08:23:18.832Z,989.76
2018-05-07T08:24:18.854Z,989.74
2018-05-07T08:25:18.821Z,989.71
2018-05-07T08:26:18.794Z,989.67
2018-05-07T08:27:18.805Z,989.64
2018-05-07T08:28:18.764Z,989.65
2018-05-07T08:29:18.796Z,989.61
2018-05-07T08:30:18.748Z,989.60
2018-05-07T08:31:18.693Z,989.55
2018-05-07T08:32:18.714Z,989.57
2018-05-07T08:33:18.658Z,989.62
2018-05-07T08:34:18.645Z,989.61
2018-05-07T08:35:18.631Z,989.66
2018-05-07T08:36:18.610Z,989.65
2018-05-07T08:37:18.574Z,989.67
2018-05-07T08:38:18.593Z,989.59
2018-05-07T08:39:18.574Z,989.68
2018-05-07T08:40:18.565Z,989.65
2018-05-07T08:41:18.512Z,989.63
2018-05-07T08:42:18.538Z,989.65
2018-05-07T08:43:18.478Z,989.64
2018-05-07T08:44:18.452Z,989.68
2018-05-07T08:45:18.436Z,989.67
2018-05-07T08:46:18.444Z,989.68
2018-05-07T08:47:18.482Z,989.65
2018-05-07T08:48:18.399Z,989.61
2018-05-07T08:49:18.369Z,989.58
2018-05-07T08:50:18.347Z,989.65
2018-05-07T08:51:18.405Z,989.65
2018-05-07T08:52:18.341Z,989.63
2018-05-07T08:53:18.374Z,989.61
2018-05-07T08:54:18.274Z,989.62
2018-05-07T08:55:18.266Z,989.61
2018-05-07T08:56:18.243Z,989.60
2018-05-07T08:57:18.325Z,989.57
2018-05-07T08:58:18.208Z,989.62
2018-05-07T08:59:18.196Z,989.64
2018-05-07T09:00:18.182Z,989.64
2018-05-07T09:01:18.166Z,989.59
2018-05-07T09:02:18.343Z,989.61
2018-05-07T09:03:18.101Z,989.60
2018-05-07T09:04:18.092Z,989.61
2018-05-07T09:05:18.107Z,989.61
2018-05-07T09:06:18.140Z,989.66
2018-05-07T09:07:18.027Z,989.61
2018-05-07T09:08:18.005Z,989.59
2018-05-07T09:09:17.991Z,989.59
2018-05-07T09:10:17.972Z,989.57
2018-05-07T09:11:17.996Z,989.62
2018-05-07T09:12:17.985Z,989.56
2018-05-07T09:13:17.915Z,989.56
2018-05-07T09:14:17.907Z,989.57
2018-05-07T09:15:17.921Z,989.49
2018-05-07T09:16:17.858Z,989.49
2018-05-07T09:17:17.853Z,989.51
2018-05-07T09:18:17.834Z,989.47
2018-05-07T09:19:17.821Z,989.48
2018-05-07T09:20:17.943Z,989.44
2018-05-07T09:21:17.765Z,989.42
2018-05-07T09:22:17.774Z,989.44
2018-05-07T09:23:17.753Z,989.45
2018-05-07T09:24:17.718Z,989.49
2018-05-07T09:25:17.701Z,989.54
2018-05-07T09:26:17.691Z,989.44
2018-05-07T09:27:17.737Z,989.46
2018-05-07T09:28:17.647Z,989.46
2018-05-07T09:29:17.611Z,989.50
2018-05-07T09:30:17.600Z,989.45
2018-05-07T09:31:17.607Z,989.46
2018-05-07T09:32:17.555Z,989.39
2018-05-07T09:33:17.633Z,989.45
2018-05-07T09:34:17.529Z,989.40
2018-05-07T09:35:17.540Z,989.51
2018-05-07T09:36:17.481Z,989.49
2018-05-07T09:37:17.479Z,989.40
2018-05-07T09:38:17.419Z,989.37
2018-05-07T09:39:17.429Z,989.41
2018-05-07T09:40:17.409Z,989.36
2018-05-07T09:41:17.388Z,989.36
2018-05-07T09:42:17.398Z,989.33
2018-05-07T09:43:17.420Z,989.38
2018-05-07T09:44:17.308Z,989.32
2018-05-07T09:45:17.302Z,989.26
2018-05-07T09:46:17.318Z,989.33
2018-05-07T09:47:17.285Z,989.30
2018-05-07T09:48:17.253Z,989.21
2018-05-07T09:49:17.242Z,989.32
2018-05-07T09:50:17.205Z,989.23
2018-05-07T09:51:17.202Z,989.25
2018-05-07T09:52:17.161Z,989.22
2018-05-07T09:53:17.142Z,989.30
2018-05-07T09:54:17.123Z,989.21
2018-05-07T09:55:17.104Z,989.24
2018-05-07T09:56:17.104Z,989.24
2018-05-07T09:57:17.088Z,989.27
2018-05-07T09:58:17.063Z,989.28
2018-05-07T09:59:17.032Z,989.28
2018-05-07T10:00:16.994Z,989.24
2018-05-07T10:01:17.008Z,989.20
2018-05-07T10:02:16.960Z,989.21
2018-05-07T10:03:16.935Z,989.18
2018-05-07T10:04:16.909Z,989.31
2018-05-07T10:05:16.918Z,989.29
2018-05-07T10:06:16.915Z,989.25
2018-05-07T10:07:16.856Z,989.27
2018-05-07T10:08:16.892Z,989.17
2018-05-07T10:09:16.828Z,989.19
2018-05-07T10:10:16.808Z,989.18
2018-05-07T10:11:16.784Z,989.15
2018-05-07T10:12:16.763Z,989.14
2018-05-07T10:13:16.738Z,989.21
2018-05-07T10:14:16.721Z,989.21
2018-05-07T10:15:16.704Z,989.19
2018-05-07T10:16:16.685Z,989.12
2018-05-07T10:17:16.680Z,989.09
2018-05-07T10:18:16.629Z,989.07
2018-05-07T10:19:16.648Z,989.11
2018-05-07T10:20:16.602Z,989.13
2018-05-07T10:21:16.575Z,989.11
2018-05-07T10:22:16.552Z,989.14
2018-05-07T10:23:16.590Z,989.11
2018-05-07T10:24:16.539Z,989.13
2018-05-07T10:25:16.522Z,989.12
2018-05-07T10:26:16.466Z,989.09
2018-05-07T10:27:16.475Z,989.07
2018-05-07T10:28:16.416Z,989.07
2018-05-07T10:29:16.401Z,989.14
2018-05-07T10:30:16.389Z,989.10
2018-05-07T10:31:16.370Z,989.10
2018-05-07T10:32:16.357Z,989.06
2018-05-07T10:33:16.332Z,989.07
2018-05-07T10:34:16.290Z,988.99
2018-05-07T10:35:16.405Z,988.99
2018-05-07T10:36:16.268Z,988.99
2018-05-07T10:37:16.240Z,988.96
2018-05-07T10:38:16.217Z,988.96
2018-05-07T10:39:16.201Z,988.93
2018-05-07T10:40:16.174Z,988.94
2018-05-07T10:41:16.195Z,988.96
2018-05-07T10:42:16.150Z,989.03
2018-05-07T10:43:16.121Z,988.97
2018-05-07T10:44:16.079Z,988.93
2018-05-07T10:45:16.075Z,989.01
2018-05-07T10:46:16.060Z,988.97
2018-05-07T10:47:16.040Z,988.84
2018-05-07T10:48:16.020Z,988.97
2018-05-07T10:49:16.041Z,988.83
2018-05-07T10:50:16.004Z,988.85
2018-05-07T10:51:15.955Z,988.77
2018-05-07T10:52:15.964Z,988.91
2018-05-07T10:53:15.906Z,988.82
2018-05-07T10:54:15.883Z,988.80
2018-05-07T10:55:15.851Z,988.70
2018-05-07T10:56:15.947Z,988.68
2018-05-07T10:57:15.827Z,988.84
2018-05-07T10:58:15.793Z,988.69
2018-05-07T10:59:15.770Z,988.72
2018-05-07T11:00:15.769Z,988.85
2018-05-07T11:01:15.820Z,988.74
2018-05-07T11:02:15.726Z,988.69
2018-05-07T11:03:15.719Z,988.67
2018-05-07T11:04:15.680Z,988.61
2018-05-07T11:05:15.669Z,988.56
2018-05-07T11:06:15.657Z,988.65
2018-05-07T11:07:15.609Z,988.58
2018-05-07T11:08:15.589Z,988.56
2018-05-07T11:09:15.568Z,988.53
2018-05-07T11:10:15.541Z,988.48
2018-05-07T11:11:15.524Z,988.59
2018-05-07T11:12:15.522Z,988.59
2018-05-07T11:13:15.465Z,988.54
2018-05-07T11:14:15.455Z,988.58
2018-05-07T11:15:15.416Z,988.60
2018-05-07T11:16:15.454Z,988.47
2018-05-07T11:17:15.384Z,988.47
2018-05-07T11:18:15.359Z,988.45
2018-05-07T11:19:15.348Z,988.40
2018-05-07T11:20:15.333Z,988.44
2018-05-07T11:21:15.337Z,988.44
2018-05-07T11:22:15.268Z,988.48
2018-05-07T11:23:15.262Z,988.42
2018-05-07T11:24:15.243Z,988.41
2018-05-07T11:25:15.195Z,988.39
2018-05-07T11:26:15.179Z,988.46
2018-05-07T11:27:15.180Z,988.49
2018-05-07T11:28:15.158Z,988.39
2018-05-07T11:29:15.132Z,988.35
2018-05-07T11:30:15.145Z,988.40
2018-05-07T11:31:15.118Z,988.36
2018-05-07T11:32:15.050Z,988.32
2018-05-07T11:33:15.052Z,988.31
2018-05-07T11:34:15.027Z,988.35
2018-05-07T11:35:15.010Z,988.31
2018-05-07T11:36:15.021Z,988.44
2018-05-07T11:37:14.979Z,988.43
2018-05-07T11:38:14.971Z,988.35
2018-05-07T11:39:14.901Z,988.41
2018-05-07T11:40:14.913Z,988.45
2018-05-07T11:41:14.956Z,988.38
2018-05-07T11:42:14.843Z,988.37
2018-05-07T11:43:14.818Z,988.30
2018-05-07T11:44:14.827Z,988.30
2018-05-07T11:45:14.813Z,988.36
2018-05-07T11:46:14.796Z,988.32
2018-05-07T11:47:14.716Z,988.30
2018-05-07T11:48:14.695Z,988.30
2018-05-07T11:49:14.690Z,988.29
2018-05-07T11:50:14.683Z,988.25
2018-05-07T11:51:14.651Z,988.28
2018-05-07T11:52:14.628Z,988.23
2018-05-07T11:53:14.693Z,988.17
2018-05-07T11:54:14.573Z,988.20
2018-05-07T11:55:14.549Z,988.12
2018-05-07T11:56:14.593Z,988.15
2018-05-07T11:57:14.517Z,988.19
2018-05-07T11:58:14.501Z,988.16
2018-05-07T11:59:14.500Z,988.23
2018-05-07T12:00:14.436Z,988.14
2018-05-07T12:01:14.432Z,988.15
2018-05-07T12:02:14.406Z,988.06
2018-05-07T12:03:14.528Z,988.06
2018-05-07T12:04:14.414Z,988.10
2018-05-07T12:05:14.347Z,988.10
2018-05-07T12:06:14.311Z,988.09
2018-05-07T12:07:14.290Z,988.08
2018-05-07T12:08:14.305Z,988.07
2018-05-07T12:09:14.265Z,988.09
2018-05-07T12:10:14.245Z,988.03
2018-05-07T12:11:14.228Z,988.00
2018-05-07T12:12:14.200Z,988.01
2018-05-07T12:13:14.188Z,987.94
2018-05-07T12:14:14.153Z,988.02
2018-05-07T12:15:14.137Z,988.02
2018-05-07T12:16:14.106Z,987.94
2018-05-07T12:17:14.118Z,987.93
2018-05-07T12:18:14.090Z,987.89
2018-05-07T12:19:14.051Z,987.85
2018-05-07T12:20:14.022Z,987.91
2018-05-07T12:21:14.053Z,987.90
2018-05-07T12:22:13.993Z,987.78
2018-05-07T12:23:13.992Z,987.86
2018-05-07T12:24:13.960Z,987.88
2018-05-07T12:25:13.921Z,987.95
2018-05-07T12:26:13.883Z,987.91
2018-05-07T12:27:13.858Z,987.91
2018-05-07T12:28:13.863Z,987.91
2018-05-07T12:29:13.832Z,987.93
2018-05-07T12:30:13.805Z,987.91
2018-05-07T12:31:13.953Z,987.91
2018-05-07T12:32:13.764Z,987.85
2018-05-07T12:33:13.749Z,987.86
2018-05-07T12:34:13.715Z,987.97
2018-05-07T12:35:13.695Z,987.94
2018-05-07T12:36:13.689Z,987.86
2018-05-07T12:37:13.657Z,987.88
2018-05-07T12:38:13.641Z,987.78
2018-05-07T12:39:13.626Z,987.76
2018-05-07T12:40:13.592Z,987.79
2018-05-07T12:41:13.570Z,987.75
2018-05-07T12:42:13.546Z,987.77
2018-05-07T12:43:13.533Z,987.75
2018-05-07T12:44:13.510Z,987.74
2018-05-07T12:45:13.489Z,987.71
2018-05-07T12:46:13.482Z,987.70
2018-05-07T12:47:13.439Z,987.71
2018-05-07T12:48:13.411Z,987.64
2018-05-07T12:49:13.452Z,987.59
2018-05-07T12:50:13.385Z,987.65
2018-05-07T12:51:13.353Z,987.72
2018-05-07T12:52:13.351Z,987.66
2018-05-07T12:53:13.328Z,987.65
2018-05-07T12:54:13.333Z,987.71
2018-05-07T12:55:13.279Z,987.71
2018-05-07T12:56:13.244Z,987.64
2018-05-07T12:57:14.315Z,987.66
2018-05-07T12:58:13.220Z,987.61
2018-05-07T12:59:13.373Z,987.58
2018-05-07T13:00:13.201Z,987.60
2018-05-07T13:01:13.141Z,987.61
2018-05-07T13:02:13.100Z,987.50
2018-05-07T13:03:13.119Z,987.44
2018-05-07T13:04:13.077Z,987.49
2018-05-07T13:05:13.043Z,987.46
2018-05-07T13:06:13.029Z,987.43
2018-05-07T13:07:13.019Z,987.47
2018-05-07T13:08:12.991Z,987.43
2018-05-07T13:09:12.994Z,987.43
2018-05-07T13:10:12.937Z,987.39
2018-05-07T13:11:12.927Z,987.45
2018-05-07T13:12:12.894Z,987.40
2018-05-07T13:13:12.891Z,987.40
2018-05-07T13:14:12.874Z,987.40
2018-05-07T13:15:12.871Z,987.38
2018-05-07T13:16:12.816Z,987.45
2018-05-07T13:17:12.821Z,987.43
2018-05-07T13:18:12.775Z,987.42
2018-05-07T13:19:12.765Z,987.35
2018-05-07T13:20:12.842Z,987.33
2018-05-07T13:21:12.706Z,987.40
2018-05-07T13:22:12.691Z,987.38
2018-05-07T13:23:12.686Z,987.31